Time;durP1;ratioP1;P1;durP2;ratioP2;P2;SDS_P1;SDS_P2;PMS_P1;PMS_P2;Temp;Humidity;BMP_temperature;BMP_pressure;BME280_temperature;BME280_humidity;BME280_pressure;Samples;Min_cycle;Max_cycle;Signal;HPM_P1;HPM_P2
2022/05/30 00:00:46;;;;;;;0.95;0.45;;;10.50;73.10;;;;;;4945678;29;20552;-76
2022/05/30 00:03:12;;;;;;;0.10;0.10;;;10.50;73.20;;;;;;4949197;29;20043;-76
2022/05/30 00:05:46;;;;;;;0.25;0.15;;;10.50;73.30;;;;;;4957522;29;20047;-77
2022/05/30 00:08:16;;;;;;;0.47;0.30;;;10.40;73.30;;;;;;4926300;29;20031;-77
2022/05/30 00:10:46;;;;;;;0.98;0.10;;;10.40;73.50;;;;;;4975653;28;20046;-77
2022/05/30 00:13:12;;;;;;;0.52;0.22;;;10.50;73.60;;;;;;4981539;28;20067;-77
2022/05/30 00:15:39;;;;;;;1.02;0.40;;;10.30;73.50;;;;;;4989626;28;20035;-76
2022/05/30 00:18:07;;;;;;;0.77;0.25;;;10.20;73.50;;;;;;5004333;28;20151;-76
2022/05/30 00:20:33;;;;;;;0.95;0.22;;;10.30;73.70;;;;;;5004060;28;20089;-74
2022/05/30 00:22:59;;;;;;;0.20;0.20;;;10.20;73.80;;;;;;4979172;28;20489;-75
2022/05/30 00:25:25;;;;;;;0.52;0.30;;;10.20;73.90;;;;;;5000473;28;20050;-76
2022/05/30 00:27:50;;;;;;;0.77;0.30;;;10.10;73.90;;;;;;4997279;28;20027;-75
2022/05/30 00:30:16;;;;;;;0.20;0.20;;;10.10;74.10;;;;;;4984010;28;20046;-75
2022/05/30 00:32:45;;;;;;;0.40;0.30;;;10.10;74.30;;;;;;5006398;28;20026;-77
2022/05/30 00:35:13;;;;;;;0.20;0.20;;;10.10;74.30;;;;;;4983755;28;20043;-77
2022/05/30 00:37:41;;;;;;;1.10;0.30;;;10.00;74.30;;;;;;4969605;28;20038;-76
2022/05/30 00:40:11;;;;;;;0.70;0.40;;;10.10;74.50;;;;;;4968694;28;20015;-77
2022/05/30 00:42:37;;;;;;;0.30;0.20;;;10.00;74.50;;;;;;4997907;28;20389;-76
2022/05/30 00:45:03;;;;;;;0.60;0.30;;;9.90;74.50;;;;;;4992904;28;20085;-75
2022/05/30 00:47:29;;;;;;;1.05;0.20;;;10.00;74.60;;;;;;4985173;28;20042;-75
2022/05/30 00:49:55;;;;;;;1.02;0.20;;;9.90;74.60;;;;;;5002066;28;20036;-76
2022/05/30 00:52:26;;;;;;;0.40;0.30;;;9.90;74.60;;;;;;5001041;28;20041;-75
2022/05/30 00:55:00;;;;;;;0.35;0.10;;;9.80;74.70;;;;;;4976528;28;20437;-75
2022/05/30 00:57:33;;;;;;;0.30;0.25;;;9.80;74.80;;;;;;5003369;28;20050;-76
2022/05/30 01:00:10;;;;;;;0.20;0.20;;;9.90;74.80;;;;;;4988103;28;20038;-74
2022/05/30 01:02:37;;;;;;;0.20;0.20;;;9.80;74.80;;;;;;5000186;28;20046;-76
2022/05/30 01:07:48;;;;;;;0.28;0.20;;;9.90;74.90;;;;;;4964112;29;20124;-77
2022/05/30 01:10:18;;;;;;;0.82;0.20;;;9.90;74.90;;;;;;4958006;29;20107;-77
2022/05/30 01:12:52;;;;;;;0.20;0.20;;;9.80;74.80;;;;;;4986035;28;20050;-77
2022/05/30 01:15:21;;;;;;;0.25;0.22;;;9.90;74.90;;;;;;4961636;28;20039;-76
2022/05/30 01:17:55;;;;;;;0.82;0.30;;;9.90;74.90;;;;;;4975823;28;20061;-75
2022/05/30 01:20:53;;;;;;;0.57;0.30;;;9.90;74.80;;;;;;4990193;28;20057;-75
2022/05/30 01:23:43;;;;;;;0.20;0.20;;;9.80;74.90;;;;;;4975634;28;20062;-75
2022/05/30 01:26:44;;;;;;;0.63;0.20;;;9.90;74.90;;;;;;4977050;28;20080;-76
2022/05/30 01:29:18;;;;;;;0.30;0.30;;;9.80;74.90;;;;;;4961360;28;20054;-76
2022/05/30 01:31:44;;;;;;;0.20;0.20;;;9.70;74.90;;;;;;4993279;28;20038;-75
2022/05/30 01:34:10;;;;;;;0.20;0.20;;;9.70;75.00;;;;;;4945349;28;20034;-76
2022/05/30 01:36:36;;;;;;;0.30;0.30;;;9.70;75.10;;;;;;4955434;29;20082;-76
2022/05/30 01:39:04;;;;;;;0.32;0.13;;;9.70;75.20;;;;;;4922667;29;20036;-76
2022/05/30 01:41:30;;;;;;;0.10;0.10;;;9.70;75.20;;;;;;4930674;29;20062;-77
2022/05/30 01:44:05;;;;;;;0.50;0.30;;;9.60;75.30;;;;;;4931064;29;20071;-79
2022/05/30 01:46:43;;;;;;;1.05;0.25;;;9.60;75.30;;;;;;4971508;28;20058;-80
2022/05/30 01:49:13;;;;;;;0.20;0.20;;;9.60;75.40;;;;;;4963938;29;20031;-81
2022/05/30 01:51:42;;;;;;;0.20;0.20;;;9.60;75.50;;;;;;4948817;29;20047;-81
2022/05/30 01:54:08;;;;;;;0.20;0.20;;;9.50;75.50;;;;;;4971810;28;20047;-81
2022/05/30 01:56:34;;;;;;;0.10;0.10;;;9.50;75.60;;;;;;4962896;28;20035;-81
2022/05/30 01:58:59;;;;;;;0.22;0.22;;;9.50;75.70;;;;;;4949445;29;20062;-81
2022/05/30 02:01:26;;;;;;;0.10;0.10;;;9.40;75.70;;;;;;4929606;29;20109;-80
2022/05/30 02:03:53;;;;;;;0.47;0.13;;;9.40;75.80;;;;;;4962361;29;20047;-81
2022/05/30 02:06:21;;;;;;;0.10;0.10;;;9.30;75.80;;;;;;4964322;29;20051;-80
2022/05/30 02:08:47;;;;;;;0.50;0.30;;;9.30;75.90;;;;;;5005558;28;20568;-80
2022/05/30 02:11:15;;;;;;;0.70;0.40;;;9.30;76.00;;;;;;4972547;28;20396;-80
2022/05/30 02:13:41;;;;;;;0.70;0.30;;;9.20;75.90;;;;;;4986858;28;20382;-80
2022/05/30 02:18:56;;;;;;;0.50;0.20;;;9.20;76.00;;;;;;5003807;28;20046;-81
2022/05/30 02:21:22;;;;;;;0.10;0.10;;;9.20;76.10;;;;;;4986028;28;20580;-81
2022/05/30 02:23:48;;;;;;;0.10;0.10;;;9.10;76.10;;;;;;4971536;28;20043;-81
2022/05/30 02:26:14;;;;;;;0.10;0.10;;;9.10;76.20;;;;;;4972890;28;20022;-80
2022/05/30 02:28:40;;;;;;;0.10;0.10;;;9.00;76.20;;;;;;4958948;28;20054;-80
2022/05/30 02:31:06;;;;;;;0.28;0.10;;;9.00;76.20;;;;;;4986514;28;20053;-81
2022/05/30 02:38:57;;;;;;;0.20;0.20;;;9.10;76.50;;;;;;4987138;28;20409;-81
2022/05/30 02:41:23;;;;;;;0.10;0.10;;;9.00;76.40;;;;;;4971021;28;20046;-81
2022/05/30 02:43:50;;;;;;;0.13;0.13;;;8.90;76.40;;;;;;4982002;28;20045;-81
2022/05/30 02:46:17;;;;;;;0.10;0.10;;;8.90;76.40;;;;;;4962536;28;20062;-81
2022/05/30 02:48:43;;;;;;;0.20;0.20;;;8.90;76.40;;;;;;4984154;28;20045;-81
2022/05/30 02:51:09;;;;;;;0.20;0.20;;;8.90;76.50;;;;;;4983393;28;20046;-81
2022/05/30 02:53:35;;;;;;;0.35;0.20;;;8.80;76.50;;;;;;4998060;28;20043;-80
2022/05/30 02:56:02;;;;;;;0.35;0.20;;;8.80;76.60;;;;;;4968524;28;20503;-81
2022/05/30 02:58:28;;;;;;;0.17;0.17;;;8.80;76.70;;;;;;4982298;28;20136;-80
2022/05/30 03:00:53;;;;;;;0.30;0.20;;;8.80;76.70;;;;;;4980735;28;20177;-81
2022/05/30 03:03:19;;;;;;;0.20;0.20;;;8.80;76.80;;;;;;4979376;28;20066;-81
2022/05/30 03:05:45;;;;;;;0.70;0.20;;;8.70;76.70;;;;;;4979564;28;20066;-81
2022/05/30 03:08:11;;;;;;;0.20;0.20;;;8.70;76.70;;;;;;4964341;28;20047;-81
2022/05/30 03:10:37;;;;;;;0.17;0.17;;;8.70;76.70;;;;;;4980461;28;20038;-81
2022/05/30 03:13:05;;;;;;;0.52;0.28;;;8.70;76.80;;;;;;4978812;28;20048;-81
2022/05/30 03:15:31;;;;;;;0.57;0.20;;;8.70;76.80;;;;;;5002054;28;20034;-80
2022/05/30 03:17:57;;;;;;;0.30;0.30;;;8.60;76.70;;;;;;4983969;28;20038;-81
2022/05/30 03:20:23;;;;;;;0.13;0.13;;;8.60;76.80;;;;;;4984468;28;20082;-81
2022/05/30 03:22:49;;;;;;;0.20;0.20;;;8.60;76.90;;;;;;4990128;28;20038;-81
2022/05/30 03:25:16;;;;;;;0.17;0.17;;;8.60;76.90;;;;;;4995828;28;20125;-81
2022/05/30 03:27:42;;;;;;;0.20;0.20;;;8.60;77.00;;;;;;4978163;28;20374;-80
2022/05/30 03:30:10;;;;;;;0.10;0.10;;;8.50;77.00;;;;;;4993274;28;20061;-81
2022/05/30 03:32:36;;;;;;;0.43;0.17;;;8.50;77.00;;;;;;4992948;28;20062;-81
2022/05/30 03:35:02;;;;;;;0.80;0.20;;;8.50;77.00;;;;;;4992214;28;20046;-81
2022/05/30 03:37:28;;;;;;;0.10;0.10;;;8.50;77.00;;;;;;4993416;28;20047;-80
2022/05/30 03:39:53;;;;;;;1.08;0.30;;;8.50;77.00;;;;;;4993485;28;20053;-81
2022/05/30 03:42:19;;;;;;;0.20;0.13;;;8.60;77.00;;;;;;4989514;28;20102;-81
2022/05/30 03:44:45;;;;;;;0.20;0.20;;;8.60;77.00;;;;;;4989492;28;20050;-81
2022/05/30 03:47:11;;;;;;;0.20;0.20;;;8.50;76.80;;;;;;4984735;28;20047;-81
2022/05/30 03:49:38;;;;;;;0.30;0.20;;;8.60;76.90;;;;;;4980683;28;20046;-81
2022/05/30 03:52:04;;;;;;;0.55;0.20;;;8.60;76.80;;;;;;4984933;28;20057;-80
2022/05/30 03:54:30;;;;;;;0.63;0.20;;;8.60;76.80;;;;;;4982166;28;20106;-81
2022/05/30 03:56:56;;;;;;;0.10;0.10;;;8.60;76.70;;;;;;4966142;28;20488;-81
2022/05/30 03:59:22;;;;;;;0.20;0.20;;;8.60;76.80;;;;;;4966956;28;20058;-81
2022/05/30 04:01:48;;;;;;;0.38;0.20;;;8.60;76.70;;;;;;4978877;28;20705;-81
2022/05/30 04:04:14;;;;;;;0.20;0.20;;;8.70;76.70;;;;;;4985301;28;20083;-81
2022/05/30 04:06:40;;;;;;;0.40;0.30;;;8.70;76.70;;;;;;4979778;28;20035;-81
2022/05/30 04:09:07;;;;;;;0.20;0.20;;;8.80;76.70;;;;;;4980922;28;20041;-81
2022/05/30 04:11:33;;;;;;;0.20;0.20;;;8.80;76.70;;;;;;4984341;28;20051;-81
2022/05/30 04:13:59;;;;;;;0.85;0.30;;;8.80;76.60;;;;;;4967644;28;20106;-81
2022/05/30 04:16:25;;;;;;;0.30;0.20;;;8.90;76.60;;;;;;4967730;28;20054;-80
2022/05/30 04:18:50;;;;;;;0.22;0.22;;;8.90;76.60;;;;;;4966854;28;20082;-81
2022/05/30 04:21:16;;;;;;;0.25;0.25;;;8.90;76.50;;;;;;4979087;28;20066;-81
2022/05/30 04:23:43;;;;;;;0.22;0.22;;;8.90;76.50;;;;;;4970700;28;20046;-81
2022/05/30 04:26:14;;;;;;;0.35;0.35;;;9.00;76.40;;;;;;5009481;28;20038;-81
2022/05/30 04:28:40;;;;;;;0.30;0.20;;;9.10;76.40;;;;;;4972206;28;20104;-81
2022/05/30 04:31:10;;;;;;;0.90;0.28;;;9.10;76.30;;;;;;5003974;28;20054;-81
2022/05/30 04:33:36;;;;;;;0.20;0.20;;;9.20;76.40;;;;;;5005100;28;20042;-80
2022/05/30 04:36:06;;;;;;;0.40;0.20;;;9.20;76.30;;;;;;4983120;28;20042;-80
2022/05/30 04:38:31;;;;;;;0.10;0.10;;;9.30;76.30;;;;;;5001230;28;20045;-80
2022/05/30 04:40:57;;;;;;;0.22;0.22;;;9.30;76.20;;;;;;4986148;28;20397;-80
2022/05/30 04:43:23;;;;;;;0.20;0.20;;;9.30;76.20;;;;;;4982243;28;20046;-80
2022/05/30 04:46:20;;;;;;;0.30;0.30;;;9.40;76.10;;;;;;4999035;28;20053;-80
2022/05/30 04:48:46;;;;;;;0.60;0.20;;;9.40;76.10;;;;;;4984740;28;20093;-80
2022/05/30 04:51:12;;;;;;;0.65;0.30;;;9.40;76.00;;;;;;4981473;28;20038;-80
2022/05/30 04:53:40;;;;;;;0.25;0.25;;;9.50;76.00;;;;;;4980397;28;20085;-80
2022/05/30 04:56:06;;;;;;;0.10;0.10;;;9.60;76.30;;;;;;4999790;28;20077;-80
2022/05/30 04:58:34;;;;;;;0.10;0.10;;;9.70;76.00;;;;;;4980870;28;20093;-80
2022/05/30 05:01:02;;;;;;;0.40;0.35;;;9.60;75.90;;;;;;4961192;28;20073;-80
2022/05/30 05:03:30;;;;;;;0.25;0.20;;;9.90;75.90;;;;;;4982751;28;20084;-80
2022/05/30 05:06:08;;;;;;;0.10;0.10;;;9.80;75.70;;;;;;4997109;28;20042;-80
2022/05/30 05:08:53;;;;;;;0.20;0.20;;;9.80;75.70;;;;;;4996386;28;20042;-80
2022/05/30 05:11:27;;;;;;;0.10;0.10;;;9.90;75.80;;;;;;4978932;28;20497;-80
2022/05/30 05:13:54;;;;;;;0.20;0.20;;;10.00;75.70;;;;;;4962618;28;20156;-80
2022/05/30 05:16:23;;;;;;;0.50;0.20;;;10.00;75.60;;;;;;4979789;28;20404;-80
2022/05/30 05:18:49;;;;;;;0.45;0.20;;;10.10;75.60;;;;;;4977711;28;20370;-80
2022/05/30 05:21:20;;;;;;;1.15;0.20;;;10.10;75.50;;;;;;4996526;28;20046;-80
2022/05/30 05:23:47;;;;;;;0.10;0.10;;;10.20;75.50;;;;;;4996699;28;20042;-80
2022/05/30 05:26:12;;;;;;;0.20;0.20;;;10.30;75.50;;;;;;4980130;28;20118;-80
2022/05/30 05:28:38;;;;;;;0.22;0.22;;;10.30;75.30;;;;;;4981275;28;20077;-80
2022/05/30 05:31:07;;;;;;;0.10;0.10;;;10.40;75.30;;;;;;4964024;28;20129;-79
2022/05/30 05:33:33;;;;;;;0.15;0.15;;;10.40;75.20;;;;;;4978580;28;20050;-80
2022/05/30 05:35:58;;;;;;;0.20;0.20;;;10.50;75.20;;;;;;4979883;28;20049;-80
2022/05/30 05:38:24;;;;;;;0.20;0.20;;;10.50;75.10;;;;;;4980851;28;20106;-80
2022/05/30 05:40:51;;;;;;;0.17;0.17;;;10.50;75.10;;;;;;4963554;28;20038;-80
2022/05/30 05:43:17;;;;;;;0.20;0.20;;;10.60;75.20;;;;;;4997452;28;20061;-80
2022/05/30 05:45:43;;;;;;;0.10;0.10;;;10.60;75.20;;;;;;4996720;28;20047;-80
2022/05/30 05:48:10;;;;;;;0.20;0.20;;;10.60;75.10;;;;;;4997003;28;20042;-80
2022/05/30 05:50:39;;;;;;;0.10;0.10;;;10.70;75.20;;;;;;4976998;28;20043;-81
2022/05/30 05:53:05;;;;;;;0.10;0.10;;;10.60;75.00;;;;;;4979650;28;20074;-80
2022/05/30 05:55:31;;;;;;;0.20;0.20;;;10.80;75.00;;;;;;4962468;28;20082;-80
2022/05/30 05:57:56;;;;;;;0.20;0.20;;;10.80;75.00;;;;;;4998730;28;20038;-81
2022/05/30 06:00:22;;;;;;;0.28;0.28;;;10.80;74.90;;;;;;4945521;28;20054;-81
2022/05/30 06:02:48;;;;;;;0.20;0.20;;;11.00;74.90;;;;;;4963878;28;20073;-81
2022/05/30 06:05:14;;;;;;;0.10;0.10;;;11.10;74.80;;;;;;4961836;28;21233;-81
2022/05/30 06:07:42;;;;;;;0.28;0.28;;;11.20;74.80;;;;;;4962170;28;20489;-81
2022/05/30 06:10:10;;;;;;;0.30;0.25;;;11.30;74.60;;;;;;4998406;28;20061;-81
2022/05/30 06:12:42;;;;;;;0.40;0.20;;;11.40;74.50;;;;;;4999062;28;20049;-82
2022/05/30 06:15:10;;;;;;;0.10;0.10;;;11.50;74.20;;;;;;4996734;28;20085;-81
2022/05/30 06:17:39;;;;;;;0.63;0.20;;;11.50;74.10;;;;;;5000258;28;20048;-83
2022/05/30 06:20:09;;;;;;;0.10;0.10;;;11.60;74.10;;;;;;5006163;28;20045;-83
2022/05/30 06:22:35;;;;;;;0.68;0.17;;;11.70;74.00;;;;;;4996465;28;20109;-82
2022/05/30 06:25:02;;;;;;;0.52;0.20;;;11.80;73.90;;;;;;4981180;28;20061;-82
2022/05/30 06:27:28;;;;;;;0.98;0.17;;;11.90;73.70;;;;;;4965235;28;20034;-81
2022/05/30 06:29:53;;;;;;;0.30;0.22;;;12.00;73.50;;;;;;4981127;28;20039;-82
2022/05/30 06:32:19;;;;;;;0.57;0.20;;;12.00;73.70;;;;;;4978520;28;20408;-78
2022/05/30 06:34:45;;;;;;;0.95;0.17;;;12.10;73.70;;;;;;4978169;28;20042;-78
2022/05/30 06:37:16;;;;;;;0.50;0.30;;;12.10;73.70;;;;;;4960516;28;20500;-80
2022/05/30 06:40:45;;;;;;;0.10;0.10;;;12.20;73.30;;;;;;4962763;28;20065;-79
2022/05/30 06:43:10;;;;;;;0.65;0.20;;;12.30;72.90;;;;;;4888855;29;20108;-79
2022/05/30 06:45:36;;;;;;;0.20;0.20;;;12.50;72.70;;;;;;4897734;29;20538;-76
2022/05/30 06:48:03;;;;;;;0.20;0.20;;;12.50;72.50;;;;;;4879103;29;20037;-76
2022/05/30 06:50:32;;;;;;;0.55;0.20;;;12.70;72.50;;;;;;4895020;29;20040;-76
2022/05/30 06:52:58;;;;;;;0.52;0.20;;;12.70;72.40;;;;;;4894840;29;20040;-78
2022/05/30 06:55:24;;;;;;;0.22;0.20;;;12.70;72.20;;;;;;4877732;29;20120;-75
2022/05/30 06:58:34;;;;;;;0.30;0.30;;;12.80;71.90;;;;;;4895997;29;20040;-77
2022/05/30 07:01:02;;;;;;;0.52;0.20;;;12.90;71.70;;;;;;4894691;29;20044;-75
2022/05/30 07:03:31;;;;;;;0.22;0.20;;;13.10;71.80;;;;;;4879224;29;20141;-77
2022/05/30 07:05:56;;;;;;;0.20;0.10;;;13.20;71.50;;;;;;4897376;29;20139;-76
2022/05/30 07:08:23;;;;;;;0.10;0.10;;;13.30;71.20;;;;;;4923493;29;20167;-75
2022/05/30 07:10:49;;;;;;;0.13;0.13;;;13.40;71.10;;;;;;4932703;29;20051;-74
2022/05/30 07:13:15;;;;;;;0.25;0.10;;;13.40;70.90;;;;;;4917959;28;20041;-74
2022/05/30 07:15:42;;;;;;;0.22;0.20;;;13.40;70.90;;;;;;4976105;28;20076;-74
2022/05/30 07:18:10;;;;;;;0.28;0.13;;;13.30;71.10;;;;;;4959029;28;20496;-75
2022/05/30 07:20:36;;;;;;;0.10;0.10;;;13.30;71.30;;;;;;4974190;28;20035;-74
2022/05/30 07:23:02;;;;;;;0.50;0.20;;;13.50;71.50;;;;;;4993002;28;20066;-75
2022/05/30 07:25:27;;;;;;;0.32;0.10;;;13.60;71.20;;;;;;4993374;28;20046;-74
2022/05/30 07:27:53;;;;;;;0.45;0.28;;;13.70;70.90;;;;;;4993802;28;20047;-76
2022/05/30 07:30:19;;;;;;;0.20;0.10;;;13.70;71.00;;;;;;4977671;28;20038;-75
2022/05/30 07:32:44;;;;;;;0.38;0.20;;;13.60;70.90;;;;;;4980070;28;20042;-76
2022/05/30 07:35:10;;;;;;;0.63;0.30;;;13.60;70.80;;;;;;4993829;28;20473;-75
2022/05/30 07:37:36;;;;;;;0.10;0.10;;;13.60;71.10;;;;;;4992395;28;20030;-76
2022/05/30 07:40:05;;;;;;;0.15;0.15;;;13.40;71.20;;;;;;4975364;28;20397;-76
2022/05/30 07:42:30;;;;;;;0.28;0.20;;;13.50;71.50;;;;;;4992488;28;20057;-74
2022/05/30 07:44:56;;;;;;;0.20;0.20;;;13.40;71.40;;;;;;4974366;28;20030;-75
2022/05/30 07:47:22;;;;;;;0.22;0.10;;;13.40;71.80;;;;;;4991862;28;20177;-75
2022/05/30 07:49:48;;;;;;;0.43;0.20;;;13.30;71.90;;;;;;4974343;28;20116;-74
2022/05/30 07:52:14;;;;;;;0.63;0.20;;;13.30;72.00;;;;;;4991431;28;20081;-74
2022/05/30 07:54:40;;;;;;;1.17;0.20;;;13.40;72.00;;;;;;4974471;28;20109;-75
2022/05/30 07:57:06;;;;;;;0.10;0.10;;;13.40;71.90;;;;;;4935384;29;20039;-74
2022/05/30 07:59:35;;;;;;;0.35;0.13;;;13.30;71.90;;;;;;4952153;28;20051;-75
2022/05/30 08:02:01;;;;;;;0.45;0.20;;;13.20;71.90;;;;;;4955571;29;20522;-75
2022/05/30 08:04:26;;;;;;;0.20;0.20;;;13.20;71.80;;;;;;4957869;29;20049;-75
2022/05/30 08:06:52;;;;;;;0.28;0.20;;;13.10;71.80;;;;;;4955233;29;20489;-74
2022/05/30 08:09:19;;;;;;;0.45;0.20;;;13.20;71.90;;;;;;4954363;28;20067;-76
2022/05/30 08:11:45;;;;;;;0.40;0.10;;;13.20;71.90;;;;;;4954486;29;20043;-74
2022/05/30 08:14:10;;;;;;;0.20;0.20;;;13.20;71.70;;;;;;4954603;29;20043;-75
2022/05/30 08:16:37;;;;;;;0.17;0.17;;;13.30;71.70;;;;;;4954625;29;20434;-74
2022/05/30 08:19:05;;;;;;;0.20;0.10;;;13.40;71.40;;;;;;4953974;29;20146;-75
2022/05/30 08:21:31;;;;;;;0.20;0.20;;;13.40;71.10;;;;;;4954336;28;20079;-75
2022/05/30 08:23:56;;;;;;;0.10;0.10;;;13.50;70.70;;;;;;4954439;29;20082;-75
2022/05/30 08:26:22;;;;;;;0.20;0.20;;;13.60;70.50;;;;;;4954078;29;20044;-75
2022/05/30 08:28:48;;;;;;;0.52;0.20;;;13.60;70.50;;;;;;4988382;28;20429;-76
2022/05/30 08:31:15;;;;;;;0.10;0.10;;;13.60;70.50;;;;;;4976987;28;20074;-76
2022/05/30 08:33:41;;;;;;;0.17;0.17;;;13.60;70.60;;;;;;4977502;28;20026;-76
2022/05/30 08:36:09;;;;;;;0.63;0.20;;;13.60;70.60;;;;;;5000387;28;20117;-78
2022/05/30 08:42:38;;;;;;;0.17;0.10;;;13.60;70.10;;;;;;4927236;29;20052;-78
2022/05/30 08:45:30;;;;;;;0.50;0.22;;;13.70;70.00;;;;;;4844262;29;20050;-79
2022/05/30 08:48:08;;;;;;;0.10;0.10;;;13.80;69.80;;;;;;4841763;29;20076;-77
2022/05/30 08:50:53;;;;;;;0.10;0.10;;;13.90;69.70;;;;;;4835195;29;20083;-77
2022/05/30 08:53:50;;;;;;;0.45;0.10;;;13.90;69.40;;;;;;4844428;29;20065;-76
2022/05/30 08:56:26;;;;;;;0.55;0.20;;;14.10;69.20;;;;;;4846592;29;20069;-75
2022/05/30 08:59:39;;;;;;;0.30;0.10;;;14.20;69.00;;;;;;4850163;29;20086;-81
2022/05/30 09:02:15;;;;;;;0.10;0.10;;;14.40;68.80;;;;;;4829331;29;20069;-76
2022/05/30 09:04:49;;;;;;;0.10;0.10;;;14.60;68.60;;;;;;4837236;29;20049;-75
2022/05/30 09:07:19;;;;;;;0.20;0.20;;;14.50;68.40;;;;;;4846841;29;20050;-74
2022/05/30 09:10:07;;;;;;;0.20;0.20;;;14.50;68.60;;;;;;4844630;29;20498;-84
2022/05/30 09:13:11;;;;;;;0.20;0.20;;;14.60;68.50;;;;;;4860038;29;20071;-78
2022/05/30 09:16:08;;;;;;;0.35;0.20;;;14.70;68.30;;;;;;4930955;29;20104;-79
2022/05/30 09:18:45;;;;;;;1.40;0.20;;;14.80;68.20;;;;;;4885372;29;20097;-80
2022/05/30 09:21:11;;;;;;;0.13;0.13;;;15.00;68.10;;;;;;4883202;29;20057;-77
2022/05/30 09:23:37;;;;;;;1.45;0.20;;;15.10;67.70;;;;;;4895214;29;20050;-76
2022/05/30 09:26:25;;;;;;;1.38;0.20;;;15.10;67.50;;;;;;4857665;29;20029;-79
2022/05/30 09:28:52;;;;;;;0.10;0.10;;;15.20;67.50;;;;;;4831051;29;20521;-76
2022/05/30 09:34:54;;;;;;;0.20;0.20;;;15.40;67.30;;;;;;4834546;29;20041;-76
2022/05/30 09:37:26;;;;;;;0.30;0.30;;;15.50;67.10;;;;;;4808278;29;20133;-77
2022/05/30 09:39:54;;;;;;;0.38;0.20;;;15.80;66.90;;;;;;4780436;30;20074;-76
2022/05/30 09:46:46;;;;;;;0.65;0.20;;;16.10;65.90;;;;;;4712285;30;20092;-80
2022/05/30 09:49:49;;;;;;;0.30;0.30;;;16.10;65.90;;;;;;4725249;30;20061;-79
2022/05/30 09:52:37;;;;;;;0.17;0.17;;;16.00;66.10;;;;;;4740749;30;20119;-78
2022/05/30 09:55:20;;;;;;;0.20;0.20;;;16.10;66.10;;;;;;4795119;29;20097;-79
2022/05/30 09:57:59;;;;;;;0.63;0.17;;;16.40;65.70;;;;;;4767791;30;20055;-79
2022/05/30 10:00:38;;;;;;;0.57;0.30;;;16.40;65.30;;;;;;4767709;30;20032;-79
2022/05/30 10:03:11;;;;;;;0.20;0.20;;;16.30;65.60;;;;;;4778395;30;20086;-76
2022/05/30 10:05:57;;;;;;;0.30;0.25;;;16.10;65.90;;;;;;4758055;30;20114;-78
2022/05/30 10:08:37;;;;;;;0.40;0.30;;;16.00;66.30;;;;;;4752629;30;20068;-79
2022/05/30 10:11:50;;;;;;;1.42;0.30;;;15.90;67.20;;;;;;4767920;30;20645;-80
2022/05/30 10:14:54;;;;;;;0.43;0.25;;;15.70;66.80;;;;;;4746700;30;20052;-81
2022/05/30 10:17:31;;;;;;;0.20;0.20;;;15.60;67.20;;;;;;4728707;30;20052;-80
2022/05/30 10:20:20;;;;;;;0.13;0.10;;;15.50;67.40;;;;;;4756700;30;20119;-78
2022/05/30 10:30:11;;;;;;;0.47;0.20;;;15.40;68.20;;;;;;4820080;29;20077;-79
2022/05/30 10:36:47;;;;;;;0.10;0.10;;;15.30;67.70;;;;;;4784165;29;20196;-76
2022/05/30 10:39:41;;;;;;;0.20;0.20;;;15.30;67.40;;;;;;4783319;30;20153;-75
2022/05/30 10:42:15;;;;;;;0.20;0.20;;;15.30;67.40;;;;;;4787698;30;20032;-76
2022/05/30 10:44:49;;;;;;;0.28;0.28;;;15.30;67.20;;;;;;4799735;29;20141;-75
2022/05/30 10:47:45;;;;;;;1.23;0.17;;;15.30;67.00;;;;;;4837007;29;20070;-75
2022/05/30 10:56:55;;;;;;;0.33;0.30;;;15.40;66.70;;;;;;4795407;30;20051;-77
2022/05/30 10:59:45;;;;;;;0.80;0.30;;;15.50;66.70;;;;;;4795524;30;20285;-76
2022/05/30 11:02:26;;;;;;;0.30;0.20;;;15.40;66.60;;;;;;4803247;30;20088;-76
2022/05/30 11:05:00;;;;;;;0.73;0.20;;;15.50;67.30;;;;;;4796711;29;20112;-76
2022/05/30 11:07:52;;;;;;;0.32;0.30;;;15.40;66.40;;;;;;4821752;29;20061;-76
2022/05/30 11:10:43;;;;;;;0.47;0.20;;;15.40;66.40;;;;;;4840407;29;20058;-76
2022/05/30 11:13:43;;;;;;;0.17;0.17;;;15.40;66.30;;;;;;4862857;29;20036;-76
2022/05/30 11:16:36;;;;;;;0.10;0.10;;;15.50;66.30;;;;;;4943167;29;20035;-77
2022/05/30 11:19:13;;;;;;;0.10;0.10;;;15.50;66.20;;;;;;4925247;29;20039;-80
2022/05/30 11:21:59;;;;;;;1.13;0.30;;;15.60;66.00;;;;;;4977893;28;20489;-78
2022/05/30 11:24:25;;;;;;;0.77;0.28;;;15.60;65.80;;;;;;4960627;28;20062;-75
2022/05/30 11:27:10;;;;;;;0.20;0.20;;;15.50;65.80;;;;;;4992268;28;20038;-76
2022/05/30 11:29:56;;;;;;;0.88;0.35;;;15.60;65.80;;;;;;4992094;28;20544;-76
2022/05/30 11:32:44;;;;;;;0.52;0.30;;;15.50;65.40;;;;;;4974754;28;20125;-79
2022/05/30 11:35:31;;;;;;;0.20;0.20;;;15.50;65.50;;;;;;4976493;28;20038;-80
2022/05/30 11:38:31;;;;;;;0.30;0.30;;;15.50;65.50;;;;;;4992144;28;20046;-80
2022/05/30 11:41:23;;;;;;;0.50;0.30;;;15.50;65.70;;;;;;4974728;28;20053;-77
2022/05/30 11:44:12;;;;;;;0.20;0.20;;;15.60;65.50;;;;;;4991543;28;20125;-78
2022/05/30 11:47:15;;;;;;;1.48;0.40;;;15.60;65.80;;;;;;4992029;28;20125;-77
2022/05/30 11:50:15;;;;;;;0.40;0.30;;;15.70;65.10;;;;;;4974317;28;20048;-76
2022/05/30 11:53:02;;;;;;;0.10;0.10;;;15.90;65.00;;;;;;4991816;28;20050;-76
2022/05/30 11:55:56;;;;;;;0.20;0.20;;;15.90;64.70;;;;;;4990856;28;20047;-77
2022/05/30 11:58:51;;;;;;;0.30;0.20;;;15.90;64.50;;;;;;4978506;28;20046;-77
2022/05/30 12:01:20;;;;;;;0.20;0.20;;;16.00;64.30;;;;;;4990894;28;20408;-78
2022/05/30 12:04:16;;;;;;;0.15;0.15;;;16.10;64.20;;;;;;4957238;28;20042;-77
2022/05/30 12:07:06;;;;;;;0.20;0.20;;;16.30;63.70;;;;;;4991495;28;20054;-77
2022/05/30 12:09:56;;;;;;;0.25;0.25;;;16.40;63.60;;;;;;4975530;28;20070;-79
2022/05/30 12:12:56;;;;;;;0.20;0.20;;;16.50;63.30;;;;;;4991436;28;20046;-78
2022/05/30 12:16:02;;;;;;;0.30;0.30;;;16.50;63.70;;;;;;4978761;28;20054;-77
2022/05/30 12:24:35;;;;;;;0.20;0.20;;;16.80;62.60;;;;;;4976073;28;20042;-77
2022/05/30 12:27:06;;;;;;;0.30;0.30;;;16.80;62.20;;;;;;4945957;28;20093;-78
2022/05/30 12:29:46;;;;;;;0.30;0.30;;;16.80;62.50;;;;;;4972516;28;20074;-78
2022/05/30 12:32:17;;;;;;;0.17;0.17;;;16.80;62.40;;;;;;4973221;28;20095;-79
2022/05/30 12:35:10;;;;;;;0.20;0.20;;;16.90;62.50;;;;;;4991397;28;20125;-78
2022/05/30 12:37:51;;;;;;;0.20;0.20;;;16.90;62.30;;;;;;4978361;28;20043;-79
2022/05/30 12:40:40;;;;;;;0.30;0.30;;;16.90;62.20;;;;;;4956494;28;20153;-78
2022/05/30 12:43:33;;;;;;;0.57;0.30;;;17.10;62.00;;;;;;4977653;28;20117;-78
2022/05/30 12:46:12;;;;;;;1.58;0.32;;;17.10;62.10;;;;;;4962816;28;20149;-79
2022/05/30 12:48:59;;;;;;;0.30;0.20;;;17.10;61.90;;;;;;4995097;28;20034;-79
2022/05/30 12:52:13;;;;;;;0.20;0.20;;;17.20;61.80;;;;;;4986251;28;20027;-78
2022/05/30 12:58:01;;;;;;;0.30;0.30;;;17.30;62.00;;;;;;4935176;29;20047;-78
2022/05/30 13:00:49;;;;;;;0.50;0.20;;;17.20;62.00;;;;;;4933549;29;20056;-76
2022/05/30 13:27:49;;;;;;;0.38;0.20;;;17.60;61.80;;;;;;4770040;30;20098;-79
2022/05/30 13:30:23;;;;;;;0.30;0.30;;;17.60;61.80;;;;;;4775673;30;20035;-77
2022/05/30 13:32:50;;;;;;;0.30;0.28;;;17.60;61.80;;;;;;4788122;29;20039;-77
2022/05/30 13:35:17;;;;;;;0.28;0.28;;;17.70;61.80;;;;;;4826314;29;20015;-76
2022/05/30 13:37:49;;;;;;;0.28;0.28;;;17.70;61.70;;;;;;4843137;29;20392;-79
2022/05/30 13:40:25;;;;;;;0.80;0.38;;;17.60;61.50;;;;;;4881909;29;20045;-79
2022/05/30 13:43:06;;;;;;;0.40;0.30;;;17.20;62.00;;;;;;4855710;29;20122;-80
2022/05/30 13:45:39;;;;;;;0.32;0.30;;;17.30;62.30;;;;;;4985486;28;20113;-78
2022/05/30 13:48:12;;;;;;;0.47;0.30;;;17.20;62.50;;;;;;4980118;28;20034;-78
2022/05/30 13:50:58;;;;;;;0.90;0.20;;;17.40;62.10;;;;;;5014310;28;20046;-76
2022/05/30 13:53:46;;;;;;;0.20;0.20;;;17.30;61.70;;;;;;4990238;28;20055;-78
2022/05/30 13:56:26;;;;;;;0.20;0.20;;;17.40;61.70;;;;;;4982619;28;20062;-78
2022/05/30 13:58:55;;;;;;;0.13;0.13;;;17.60;61.50;;;;;;5007001;28;20904;-77
2022/05/30 14:01:25;;;;;;;0.47;0.20;;;17.60;61.00;;;;;;4994423;28;20074;-79
2022/05/30 14:03:57;;;;;;;0.20;0.20;;;17.80;61.00;;;;;;5000472;28;20532;-77
2022/05/30 14:06:39;;;;;;;0.40;0.17;;;17.80;60.70;;;;;;5007627;28;20063;-79
2022/05/30 14:09:09;;;;;;;0.40;0.40;;;17.80;60.50;;;;;;4980009;28;20034;-78
2022/05/30 14:11:40;;;;;;;0.30;0.20;;;17.60;60.60;;;;;;5008260;28;20035;-78
2022/05/30 14:14:32;;;;;;;0.20;0.20;;;17.40;60.80;;;;;;5004299;28;20070;-79
2022/05/30 14:17:12;;;;;;;1.75;0.40;;;17.30;61.60;;;;;;4940208;29;20059;-78
2022/05/30 14:19:46;;;;;;;0.20;0.20;;;17.30;61.10;;;;;;4952371;29;20539;-79
2022/05/30 14:22:59;;;;;;;0.17;0.10;;;17.30;61.10;;;;;;4957076;28;20059;-82
2022/05/30 14:25:33;;;;;;;0.32;0.28;;;17.40;60.80;;;;;;4923470;29;20098;-80
2022/05/30 14:28:02;;;;;;;0.30;0.20;;;17.40;60.70;;;;;;4903764;29;20128;-78
2022/05/30 14:30:31;;;;;;;0.43;0.30;;;17.40;60.60;;;;;;4908044;29;20637;-78
2022/05/30 14:33:15;;;;;;;0.95;0.40;;;17.10;60.90;;;;;;4911561;29;20064;-78
2022/05/30 14:36:34;;;;;;;0.40;0.40;;;17.20;60.90;;;;;;4887610;29;20056;-79